createdAt,value
2019-02-19T00:00:04.060Z,100916.72
2019-02-19T00:00:52.606Z,100922.91
2019-02-19T00:01:33.213Z,100922.36
2019-02-19T00:02:11.462Z,100919.67
2019-02-19T00:02:47.614Z,100921.28
2019-02-19T00:03:23.663Z,100930.17
2019-02-19T00:03:59.832Z,100927.73
2019-02-19T00:04:36.086Z,100928.80
2019-02-19T00:05:12.105Z,100930.16
2019-02-19T00:05:48.124Z,100929.88
2019-02-19T00:06:24.294Z,100932.55
2019-02-19T00:07:00.323Z,100933.91
2019-02-19T00:07:36.539Z,100935.81
2019-02-19T00:08:12.648Z,100930.95
2019-02-19T00:08:48.649Z,100930.41
2019-02-19T00:09:24.849Z,100934.17
2019-02-19T00:10:00.859Z,100933.34
2019-02-19T00:10:37.578Z,100935.77
2019-02-19T00:11:13.538Z,100930.92
2019-02-19T00:11:49.581Z,100936.83
2019-02-19T00:12:26.164Z,100938.72
2019-02-19T00:13:02.394Z,100935.48
2019-02-19T00:13:38.409Z,100937.09
2019-02-19T00:14:14.657Z,100939.79
2019-02-19T00:14:50.768Z,100938.45
2019-02-19T00:15:26.846Z,100942.20
2019-02-19T00:16:02.920Z,100946.23
2019-02-19T00:16:39.158Z,100946.77
2019-02-19T00:17:15.375Z,100947.31
2019-02-19T00:17:51.641Z,100946.23
2019-02-19T00:18:27.975Z,100948.11
2019-02-19T00:19:04.200Z,100950.81
2019-02-19T00:19:40.386Z,100943.80
2019-02-19T00:20:16.535Z,100948.38
2019-02-19T00:20:52.607Z,100954.28
2019-02-19T00:21:28.572Z,100952.12
2019-02-19T00:22:04.648Z,100946.70
2019-02-19T00:22:40.633Z,100948.58
2019-02-19T00:23:16.781Z,100953.95
2019-02-19T00:23:52.896Z,100954.20
2019-02-19T00:24:28.831Z,100952.86
2019-02-19T00:25:04.944Z,100951.76
2019-02-19T00:25:41.213Z,100956.05
2019-02-19T00:26:14.651Z,100957.11
2019-02-19T00:26:50.844Z,100956.01
2019-02-19T00:27:27.123Z,100954.14
2019-02-19T00:28:03.234Z,100948.74
2019-02-19T00:28:39.171Z,100954.14
2019-02-19T00:29:15.171Z,100957.64
2019-02-19T00:29:51.320Z,100957.92
2019-02-19T00:30:27.552Z,100954.68
2019-02-19T00:31:03.775Z,100955.48
2019-02-19T00:31:40.020Z,100958.44
2019-02-19T00:32:16.019Z,100956.55
2019-02-19T00:32:52.559Z,100957.62
2019-02-19T00:33:29.092Z,100959.23
2019-02-19T00:34:05.667Z,100963.27
2019-02-19T00:34:41.768Z,100965.42
2019-02-19T00:35:17.848Z,100972.71
2019-02-19T00:35:54.090Z,100973.52
2019-02-19T00:36:30.539Z,100973.23
2019-02-19T00:37:06.705Z,100974.30
2019-02-19T00:37:42.930Z,100978.61
2019-02-19T00:38:19.163Z,100981.02
2019-02-19T00:38:55.122Z,100982.63
2019-02-19T00:39:31.276Z,100981.55
2019-02-19T00:40:08.130Z,100983.45
2019-02-19T00:40:44.533Z,100983.17
2019-02-19T00:41:20.756Z,100989.89
2019-02-19T00:41:56.851Z,100991.76
2019-02-19T00:42:32.958Z,100991.76
2019-02-19T00:43:09.010Z,100992.80
2019-02-19T00:43:45.236Z,100989.82
2019-02-19T00:44:21.440Z,100996.80
2019-02-19T00:44:57.555Z,100995.20
2019-02-19T00:45:33.736Z,100994.92
2019-02-19T00:46:09.806Z,100994.92
2019-02-19T00:46:45.954Z,100999.52
2019-02-19T00:47:22.031Z,100991.42
2019-02-19T00:47:58.002Z,100995.73
2019-02-19T00:48:34.006Z,101005.15
2019-02-19T00:49:10.073Z,100999.21
2019-02-19T00:49:46.284Z,101007.05
2019-02-19T00:50:22.398Z,101002.19
2019-02-19T00:50:58.473Z,101001.65
2019-02-19T00:51:34.724Z,100999.21
2019-02-19T00:52:10.849Z,101001.91
2019-02-19T00:52:47.172Z,101007.02
2019-02-19T00:53:23.483Z,101008.89
2019-02-19T00:53:59.742Z,101005.11
2019-02-19T00:54:35.833Z,101008.06
2019-02-19T00:55:11.985Z,100997.84
2019-02-19T00:55:48.170Z,100997.84
2019-02-19T00:56:24.412Z,101000.75
2019-02-19T00:57:00.641Z,101002.36
2019-02-19T00:57:36.701Z,101002.63
2019-02-19T00:58:12.849Z,101005.84
2019-02-19T00:58:49.049Z,101000.45
2019-02-19T00:59:25.331Z,101007.72
2019-02-19T01:00:01.520Z,101006.08
2019-02-19T01:00:37.624Z,101007.72
2019-02-19T01:01:13.797Z,101008.27
2019-02-19T01:01:49.977Z,101005.27
2019-02-19T01:02:26.200Z,101009.33
2019-02-19T01:03:02.375Z,101012.02
2019-02-19T01:03:38.610Z,101016.89
2019-02-19T01:04:14.845Z,101014.16
2019-02-19T01:04:50.844Z,101010.06
2019-02-19T01:05:26.916Z,101015.39
2019-02-19T01:06:03.002Z,101014.00
2019-02-19T01:06:39.262Z,101013.09
2019-02-19T01:07:15.590Z,101009.27
2019-02-19T01:07:51.799Z,101013.58
2019-02-19T01:08:27.810Z,101013.55
2019-02-19T01:09:05.055Z,101011.05
2019-02-19T01:09:41.111Z,101018.01
2019-02-19T01:10:17.213Z,101016.31
2019-02-19T01:10:53.385Z,101020.50
2019-02-19T01:11:29.558Z,101020.50
2019-02-19T01:12:05.613Z,101020.72
2019-02-19T01:12:41.794Z,101016.34
2019-02-19T01:13:17.889Z,101017.59
2019-02-19T01:13:54.095Z,101021.22
2019-02-19T01:14:30.370Z,101019.55
2019-02-19T01:15:07.336Z,101019.55
2019-02-19T01:15:43.466Z,101020.27
2019-02-19T01:16:19.737Z,101022.61
2019-02-19T01:16:55.940Z,101024.39
2019-02-19T01:17:32.051Z,101024.39
2019-02-19T01:18:09.181Z,101024.39
2019-02-19T01:18:45.307Z,101017.08
2019-02-19T01:19:21.515Z,101029.31
2019-02-19T01:19:57.700Z,101029.31
2019-02-19T01:20:33.754Z,101028.67
2019-02-19T01:21:09.822Z,101037.81
2019-02-19T01:21:46.008Z,101037.81
2019-02-19T01:22:22.160Z,101025.80
2019-02-19T01:22:58.188Z,101031.08
2019-02-19T01:23:34.289Z,101026.68
2019-02-19T01:24:10.455Z,101026.68
2019-02-19T01:24:46.680Z,101030.15
2019-02-19T01:25:22.833Z,101027.65
2019-02-19T01:25:58.964Z,101033.27
2019-02-19T01:26:35.236Z,101033.27
2019-02-19T01:27:11.380Z,101036.46
2019-02-19T01:27:47.570Z,101036.63
2019-02-19T01:28:23.772Z,101025.03
2019-02-19T01:28:59.746Z,101034.33
2019-02-19T01:29:35.780Z,101038.84
2019-02-19T01:30:13.216Z,101038.05
2019-02-19T01:30:49.347Z,101038.05
2019-02-19T01:31:25.381Z,101040.61
2019-02-19T01:32:01.496Z,101041.38
2019-02-19T01:32:37.823Z,101039.92
2019-02-19T01:33:13.966Z,101040.78
2019-02-19T01:33:50.078Z,101040.78
2019-02-19T01:34:26.234Z,101042.36
2019-02-19T01:35:02.357Z,101046.08
2019-02-19T01:35:38.544Z,101046.52
2019-02-19T01:36:14.601Z,101045.61
2019-02-19T01:36:50.647Z,101046.11
2019-02-19T01:37:26.742Z,101054.42
2019-02-19T01:38:02.963Z,101057.09
2019-02-19T01:38:38.999Z,101039.52
2019-02-19T01:39:15.166Z,101057.48
2019-02-19T01:39:51.417Z,101054.73
2019-02-19T01:40:27.540Z,101057.59
2019-02-19T01:41:03.816Z,101058.34
2019-02-19T01:41:39.874Z,101059.12
2019-02-19T01:42:16.047Z,101059.67
2019-02-19T01:42:52.256Z,101069.36
2019-02-19T01:43:28.404Z,101065.90
2019-02-19T01:44:04.562Z,101069.19
2019-02-19T01:44:40.857Z,101066.45
2019-02-19T01:45:16.992Z,101065.90
2019-02-19T01:45:53.128Z,101071.33
2019-02-19T01:46:29.275Z,101072.68
2019-02-19T01:47:05.452Z,101065.09
2019-02-19T01:47:41.609Z,101071.58
2019-02-19T01:48:17.671Z,101069.36
2019-02-19T01:48:53.789Z,101076.34
2019-02-19T01:49:30.148Z,101073.56
2019-02-19T01:50:06.870Z,101078.63
2019-02-19T01:50:43.162Z,101073.14
2019-02-19T01:51:19.234Z,101078.27
2019-02-19T01:51:55.385Z,101079.88
2019-02-19T01:52:31.402Z,101084.91
2019-02-19T01:53:07.561Z,101077.52
2019-02-19T01:53:43.906Z,101081.84
2019-02-19T01:54:20.061Z,101084.80
2019-02-19T01:54:56.207Z,101082.83
2019-02-19T01:55:32.485Z,101083.92
2019-02-19T01:56:08.637Z,101082.81
2019-02-19T01:56:44.783Z,101087.07
2019-02-19T01:57:20.779Z,101086.52
2019-02-19T01:57:57.006Z,101088.67
2019-02-19T01:58:33.272Z,101081.03
2019-02-19T01:59:09.442Z,101089.11
2019-02-19T01:59:45.466Z,101095.23
2019-02-19T02:00:21.639Z,101094.09
2019-02-19T02:00:57.672Z,101098.88
2019-02-19T02:01:33.837Z,101098.77
2019-02-19T02:02:09.777Z,101095.92
2019-02-19T02:02:45.845Z,101096.67
2019-02-19T02:03:22.086Z,101099.38
2019-02-19T02:03:58.264Z,101099.56
2019-02-19T02:04:34.435Z,101098.67
2019-02-19T02:05:10.650Z,101097.81
2019-02-19T02:05:46.797Z,101099.73
2019-02-19T02:06:22.784Z,101104.23
2019-02-19T02:06:58.891Z,101107.13
2019-02-19T02:07:35.004Z,101101.95
2019-02-19T02:08:11.206Z,101102.19
2019-02-19T02:08:47.369Z,101098.55
2019-02-19T02:09:23.622Z,101101.17
2019-02-19T02:09:59.735Z,101100.95
2019-02-19T02:10:35.969Z,101107.34
2019-02-19T02:11:12.142Z,101103.48
2019-02-19T02:11:48.353Z,101102.43
2019-02-19T02:12:24.532Z,101104.53
2019-02-19T02:13:00.682Z,101110.20
2019-02-19T02:13:36.857Z,101107.11
2019-02-19T02:14:13.132Z,101106.18
2019-02-19T02:14:49.325Z,101109.08
2019-02-19T02:15:25.592Z,101106.36
2019-02-19T02:16:01.658Z,101112.81
2019-02-19T02:16:37.881Z,101112.43
2019-02-19T02:17:14.069Z,101111.19
2019-02-19T02:17:50.257Z,101113.27
2019-02-19T02:18:26.322Z,101111.30
2019-02-19T02:19:02.389Z,101108.47
2019-02-19T02:19:38.653Z,101109.62
2019-02-19T02:20:14.790Z,101106.55
2019-02-19T02:20:51.032Z,101112.41
2019-02-19T02:21:27.089Z,101112.85
2019-02-19T02:22:03.049Z,101108.70
2019-02-19T02:22:39.137Z,101111.91
2019-02-19T02:23:15.156Z,101110.16
2019-02-19T02:23:51.220Z,101115.61
2019-02-19T02:24:27.195Z,101118.19
2019-02-19T02:25:03.282Z,101117.31
2019-02-19T02:25:39.375Z,101116.67
2019-02-19T02:26:15.351Z,101119.88
2019-02-19T02:26:51.480Z,101118.41
2019-02-19T02:27:27.497Z,101121.86
2019-02-19T02:28:03.957Z,101123.45
2019-02-19T02:28:40.133Z,101122.59
2019-02-19T02:29:16.217Z,101129.63
2019-02-19T02:29:52.353Z,101126.34
2019-02-19T02:30:28.555Z,101127.95
2019-02-19T02:31:04.604Z,101129.00
2019-02-19T02:31:40.657Z,101129.31
2019-02-19T02:32:16.756Z,101128.52
2019-02-19T02:32:52.874Z,101127.88
2019-02-19T02:33:28.929Z,101129.36
2019-02-19T02:34:04.986Z,101128.20
2019-02-19T02:34:41.252Z,101130.21
2019-02-19T02:35:17.513Z,101130.94
2019-02-19T02:35:53.741Z,101130.78
2019-02-19T02:36:29.737Z,101135.03
2019-02-19T02:37:05.826Z,101133.31
2019-02-19T02:37:41.965Z,101139.48
2019-02-19T02:38:18.007Z,101132.59
2019-02-19T02:38:54.208Z,101128.91
2019-02-19T02:39:30.208Z,101138.36
2019-02-19T02:40:06.423Z,101132.84
2019-02-19T02:40:42.552Z,101134.77
2019-02-19T02:41:18.670Z,101136.28
2019-02-19T02:41:54.862Z,101134.69
2019-02-19T02:42:31.018Z,101140.56
2019-02-19T02:43:07.180Z,101134.03
2019-02-19T02:43:43.275Z,101138.96
2019-02-19T02:44:19.399Z,101135.41
2019-02-19T02:44:55.580Z,101137.33
2019-02-19T02:45:31.886Z,101139.81
2019-02-19T02:46:07.955Z,101139.57
2019-02-19T02:46:44.014Z,101139.16
2019-02-19T02:47:20.158Z,101138.36
2019-02-19T02:47:56.431Z,101145.89
2019-02-19T02:48:32.504Z,101139.81
2019-02-19T02:49:08.699Z,101139.47
2019-02-19T02:49:44.912Z,101145.88
2019-02-19T02:50:21.004Z,101139.80
2019-02-19T02:50:57.036Z,101136.91
2019-02-19T02:51:33.091Z,101133.22
2019-02-19T02:52:09.173Z,101136.98
2019-02-19T02:52:45.390Z,101141.55
2019-02-19T02:53:21.566Z,101139.81
2019-02-19T02:53:58.023Z,101138.61
2019-02-19T02:54:34.317Z,101142.86
2019-02-19T02:55:10.584Z,101140.61
2019-02-19T02:55:46.735Z,101136.76
2019-02-19T02:56:22.768Z,101140.52
2019-02-19T02:56:58.869Z,101136.35
2019-02-19T02:57:35.086Z,101140.03
2019-02-19T02:58:11.084Z,101146.00
2019-02-19T02:58:47.291Z,101145.37
2019-02-19T02:59:23.538Z,101144.02
2019-02-19T02:59:59.606Z,101147.94
2019-02-19T03:00:35.617Z,101139.91
2019-02-19T03:01:11.835Z,101143.11
2019-02-19T03:01:48.048Z,101143.03
2019-02-19T03:02:24.449Z,101144.87
2019-02-19T03:03:00.516Z,101141.58
2019-02-19T03:03:36.524Z,101143.98
2019-02-19T03:04:12.675Z,101141.49
2019-02-19T03:04:48.728Z,101140.88
2019-02-19T03:05:25.376Z,101135.66
2019-02-19T03:06:15.300Z,101138.06
2019-02-19T03:06:56.024Z,101136.61
2019-02-19T03:07:43.686Z,101134.92
2019-02-19T03:08:19.889Z,101139.72
2019-02-19T03:08:55.988Z,101137.56
2019-02-19T03:09:32.107Z,101138.69
2019-02-19T03:10:08.381Z,101133.47
2019-02-19T03:10:44.605Z,101135.16
2019-02-19T03:11:20.624Z,101135.30
2019-02-19T03:11:56.699Z,101133.05
2019-02-19T03:12:32.795Z,101137.23
2019-02-19T03:13:08.955Z,101135.55
2019-02-19T03:13:45.080Z,101133.53
2019-02-19T03:14:21.423Z,101132.88
2019-02-19T03:14:57.636Z,101131.98
2019-02-19T03:15:33.959Z,101131.59
2019-02-19T03:16:10.139Z,101130.47
2019-02-19T03:16:46.336Z,101132.34
2019-02-19T03:17:22.454Z,101134.00
2019-02-19T03:17:58.732Z,101128.48
2019-02-19T03:18:34.962Z,101134.41
2019-02-19T03:19:11.131Z,101126.32
2019-02-19T03:19:47.271Z,101133.44
2019-02-19T03:20:23.422Z,101125.91
2019-02-19T03:20:59.767Z,101129.91
2019-02-19T03:21:35.847Z,101127.89
2019-02-19T03:22:12.070Z,101131.92
2019-02-19T03:22:48.165Z,101126.95
2019-02-19T03:23:24.259Z,101130.00
2019-02-19T03:24:00.384Z,101128.87
2019-02-19T03:24:36.692Z,101125.52
2019-02-19T03:25:12.887Z,101128.25
2019-02-19T03:25:48.946Z,101122.53
2019-02-19T03:26:25.145Z,101124.78
2019-02-19T03:27:01.279Z,101124.78
2019-02-19T03:27:37.456Z,101123.18
2019-02-19T03:28:13.671Z,101129.11
2019-02-19T03:28:49.930Z,101122.80
2019-02-19T03:29:25.930Z,101124.06
2019-02-19T03:30:02.241Z,101122.61
2019-02-19T03:30:38.405Z,101123.32
2019-02-19T03:31:14.477Z,101127.55
2019-02-19T03:31:50.673Z,101115.19
2019-02-19T03:32:26.873Z,101114.95
2019-02-19T03:33:02.858Z,101115.84
2019-02-19T03:33:38.989Z,101117.45
2019-02-19T03:34:15.156Z,101118.34
2019-02-19T03:34:51.243Z,101117.20
2019-02-19T03:35:27.520Z,101119.78
2019-02-19T03:36:03.657Z,101112.63
2019-02-19T03:36:39.668Z,101113.81
2019-02-19T03:37:15.860Z,101112.59
2019-02-19T03:37:52.035Z,101114.19
2019-02-19T03:38:28.029Z,101116.91
2019-02-19T03:39:04.965Z,101111.45
2019-02-19T03:39:41.113Z,101109.30
2019-02-19T03:40:17.238Z,101111.45
2019-02-19T03:40:53.273Z,101106.89
2019-02-19T03:41:29.639Z,101110.98
2019-02-19T03:42:05.669Z,101106.56
2019-02-19T03:42:41.926Z,101109.53
2019-02-19T03:43:18.192Z,101109.20
2019-02-19T03:43:54.315Z,101106.14
2019-02-19T03:44:30.445Z,101107.41
2019-02-19T03:45:06.746Z,101111.08
2019-02-19T03:45:42.898Z,101106.12
2019-02-19T03:46:19.069Z,101103.86
2019-02-19T03:46:55.116Z,101108.19
2019-02-19T03:47:31.175Z,101108.98
2019-02-19T03:48:07.419Z,101109.32
2019-02-19T03:48:43.642Z,101108.42
2019-02-19T03:49:19.938Z,101109.79
2019-02-19T03:49:55.869Z,101105.70
2019-02-19T03:50:32.066Z,101107.06
2019-02-19T03:51:08.131Z,101111.48
2019-02-19T03:51:44.387Z,101104.99
2019-02-19T03:52:20.529Z,101107.25
2019-02-19T03:52:56.560Z,101107.73
2019-02-19T03:53:32.542Z,101103.08
2019-02-19T03:54:08.598Z,101102.38
2019-02-19T03:54:45.054Z,101107.17
2019-02-19T03:55:21.138Z,101099.65
2019-02-19T03:55:57.219Z,101089.86
2019-02-19T03:56:33.365Z,101094.37
2019-02-19T03:57:09.535Z,101090.29
2019-02-19T03:57:45.681Z,101090.05
2019-02-19T03:58:21.698Z,101093.91
2019-02-19T03:58:58.221Z,101100.27
2019-02-19T03:59:34.499Z,101092.31
2019-02-19T04:00:10.878Z,101092.41
2019-02-19T04:00:46.943Z,101093.67
2019-02-19T04:01:22.991Z,101098.19
2019-02-19T04:01:59.277Z,101092.08
2019-02-19T04:02:35.300Z,101093.20
2019-02-19T04:03:11.410Z,101090.15
2019-02-19T04:03:47.560Z,101093.91
2019-02-19T04:04:23.561Z,101091.42
2019-02-19T04:04:59.523Z,101087.09
2019-02-19T04:05:35.756Z,101089.95
2019-02-19T04:06:11.913Z,101090.76
2019-02-19T04:06:48.049Z,101089.44
2019-02-19T04:07:24.004Z,101098.47
2019-02-19T04:08:00.118Z,101095.88
2019-02-19T04:08:36.285Z,101095.55
2019-02-19T04:09:12.434Z,101092.78
2019-02-19T04:09:48.532Z,101089.20
2019-02-19T04:10:24.735Z,101091.19
2019-02-19T04:11:00.975Z,101092.22
2019-02-19T04:11:37.217Z,101094.19
2019-02-19T04:12:13.476Z,101085.11
2019-02-19T04:12:49.765Z,101087.65
2019-02-19T04:13:25.887Z,101094.64
2019-02-19T04:14:02.102Z,101090.45
2019-02-19T04:14:38.193Z,101093.88
2019-02-19T04:15:14.420Z,101088.66
2019-02-19T04:15:50.582Z,101083.46
2019-02-19T04:16:26.998Z,101084.56
2019-02-19T04:17:03.101Z,101088.42
2019-02-19T04:17:39.144Z,101082.33
2019-02-19T04:18:15.287Z,101081.66
2019-02-19T04:18:51.522Z,101085.77
2019-02-19T04:19:27.607Z,101084.20
2019-02-19T04:20:03.759Z,101077.94
2019-02-19T04:20:40.247Z,101076.09
2019-02-19T04:21:16.246Z,101079.77
2019-02-19T04:21:52.226Z,101077.50
2019-02-19T04:22:28.235Z,101075.80
2019-02-19T04:23:04.407Z,101078.47
2019-02-19T04:23:40.469Z,101080.77
2019-02-19T04:24:16.454Z,101079.64
2019-02-19T04:24:52.761Z,101069.42
2019-02-19T04:25:28.943Z,101076.48
2019-02-19T04:26:05.161Z,101078.88
2019-02-19T04:26:41.174Z,101073.91
2019-02-19T04:27:17.323Z,101071.08
2019-02-19T04:27:53.462Z,101067.12
2019-02-19T04:28:29.737Z,101068.28
2019-02-19T04:29:05.957Z,101066.58
2019-02-19T04:29:42.116Z,101069.08
2019-02-19T04:30:18.215Z,101073.08
2019-02-19T04:30:54.341Z,101063.81
2019-02-19T04:31:31.849Z,101063.38
2019-02-19T04:32:08.024Z,101067.13
2019-02-19T04:32:44.176Z,101066.23
2019-02-19T04:33:20.428Z,101062.23
2019-02-19T04:33:56.449Z,101063.96
2019-02-19T04:34:32.478Z,101069.36
2019-02-19T04:35:08.781Z,101064.35
2019-02-19T04:35:44.970Z,101064.69
2019-02-19T04:36:21.017Z,101059.23
2019-02-19T04:36:57.134Z,101059.69
2019-02-19T04:37:33.289Z,101056.95
2019-02-19T04:38:09.413Z,101060.09
2019-02-19T04:38:45.601Z,101055.59
2019-02-19T04:39:21.788Z,101051.73
2019-02-19T04:39:57.936Z,101052.19
2019-02-19T04:40:34.006Z,101048.09
2019-02-19T04:41:10.127Z,101043.99
2019-02-19T04:41:46.151Z,101044.80
2019-02-19T04:42:22.473Z,101051.73
2019-02-19T04:42:58.624Z,101044.33
2019-02-19T04:43:34.807Z,101043.97
2019-02-19T04:44:10.969Z,101043.27
2019-02-19T04:44:47.259Z,101046.00
2019-02-19T04:45:23.332Z,101039.53
2019-02-19T04:45:59.634Z,101041.13
2019-02-19T04:46:35.851Z,101037.76
2019-02-19T04:47:12.093Z,101040.62
2019-02-19T04:47:48.264Z,101035.72
2019-02-19T04:48:24.490Z,101039.38
2019-02-19T04:49:00.636Z,101034.07
2019-02-19T04:49:36.664Z,101038.06
2019-02-19T04:50:12.772Z,101038.51
2019-02-19T04:50:49.087Z,101041.23
2019-02-19T04:51:25.254Z,101033.27
2019-02-19T04:52:01.467Z,101035.91
2019-02-19T04:52:37.544Z,101032.38
2019-02-19T04:53:13.596Z,101028.95
2019-02-19T04:53:49.708Z,101029.64
2019-02-19T04:54:25.933Z,101030.55
2019-02-19T04:55:02.290Z,101030.05
2019-02-19T04:55:38.496Z,101029.41
2019-02-19T04:56:14.726Z,101031.70
2019-02-19T04:56:50.746Z,101030.10
2019-02-19T04:57:26.873Z,101025.33
2019-02-19T04:58:03.009Z,101023.32
2019-02-19T04:58:38.998Z,101022.65
2019-02-19T04:59:15.019Z,101019.81
2019-02-19T04:59:51.202Z,101023.56
2019-02-19T05:00:27.399Z,101019.70
2019-02-19T05:01:03.392Z,101016.52
2019-02-19T05:01:39.538Z,101016.73
2019-02-19T05:02:15.562Z,101013.56
2019-02-19T05:02:51.701Z,101018.34
2019-02-19T05:03:27.731Z,101015.84
2019-02-19T05:04:03.823Z,101012.44
2019-02-19T05:04:40.101Z,101011.30
2019-02-19T05:05:16.236Z,101015.40
2019-02-19T05:05:52.278Z,101003.33
2019-02-19T05:06:28.463Z,101005.41
2019-02-19T05:07:04.499Z,101009.52
2019-02-19T05:07:40.641Z,101008.38
2019-02-19T05:08:16.947Z,101004.50
2019-02-19T05:08:53.116Z,101001.55
2019-02-19T05:09:29.816Z,101007.47
2019-02-19T05:10:05.948Z,100999.73
2019-02-19T05:10:42.173Z,100996.53
2019-02-19T05:11:18.429Z,101000.63
2019-02-19T05:11:55.555Z,100997.45
2019-02-19T05:12:31.778Z,100999.05
2019-02-19T05:13:07.854Z,100997.45
2019-02-19T05:13:43.881Z,100992.44
2019-02-19T05:14:19.947Z,100988.80
2019-02-19T05:14:56.086Z,100993.58
2019-02-19T05:15:32.220Z,100989.47
2019-02-19T05:16:08.522Z,100994.03
2019-02-19T05:16:44.868Z,100991.53
2019-02-19T05:17:20.984Z,100982.19
2019-02-19T05:17:57.133Z,100978.55
2019-02-19T05:18:33.330Z,100982.64
2019-02-19T05:19:09.565Z,100980.38
2019-02-19T05:19:45.530Z,100982.45
2019-02-19T05:20:21.522Z,100976.08
2019-02-19T05:20:57.748Z,100977.22
2019-02-19T05:21:33.851Z,100978.35
2019-02-19T05:22:10.051Z,100976.76
2019-02-19T05:22:48.787Z,100981.09
2019-02-19T05:23:25.314Z,100978.66
2019-02-19T05:24:01.532Z,100979.64
2019-02-19T05:24:37.645Z,100974.05
2019-02-19T05:25:13.794Z,100975.30
2019-02-19T05:25:49.951Z,100972.45
2019-02-19T05:26:26.109Z,100969.16
2019-02-19T05:27:02.342Z,100966.81
2019-02-19T05:27:38.425Z,100969.09
2019-02-19T05:28:14.582Z,100968.52
2019-02-19T05:28:50.745Z,100966.70
2019-02-19T05:29:27.052Z,100966.05
2019-02-19T05:30:03.248Z,100957.28
2019-02-19T05:30:39.378Z,100957.17
2019-02-19T05:31:15.553Z,100962.06
2019-02-19T05:31:51.574Z,100956.25
2019-02-19T05:32:27.555Z,100958.87
2019-02-19T05:33:03.695Z,100957.88
2019-02-19T05:33:39.890Z,100954.46
2019-02-19T05:34:16.110Z,100956.06
2019-02-19T05:34:52.182Z,100955.60
2019-02-19T05:35:28.357Z,100951.95
2019-02-19T05:36:04.411Z,100954.44
2019-02-19T05:36:40.570Z,100949.42
2019-02-19T05:37:16.765Z,100947.34
2019-02-19T05:37:53.027Z,100948.70
2019-02-19T05:38:29.175Z,100948.48
2019-02-19T05:39:05.860Z,100950.94
2019-02-19T05:39:42.104Z,100955.39
2019-02-19T05:40:18.208Z,100948.44
2019-02-19T05:40:54.372Z,100953.20
2019-02-19T05:41:30.584Z,100948.61
2019-02-19T05:42:06.672Z,100943.13
2019-02-19T05:42:42.841Z,100944.91
2019-02-19T05:43:19.079Z,100946.89
2019-02-19T05:43:55.247Z,100940.25
2019-02-19T05:44:31.303Z,100941.77
2019-02-19T05:45:07.634Z,100940.62
2019-02-19T05:45:43.907Z,100943.94
2019-02-19T05:46:20.336Z,100937.00
2019-02-19T05:46:56.434Z,100933.34
2019-02-19T05:47:32.724Z,100934.03
2019-02-19T05:48:08.900Z,100932.44
2019-02-19T05:48:45.166Z,100935.41
2019-02-19T05:49:21.327Z,100935.63
2019-02-19T05:49:57.370Z,100930.43
2019-02-19T05:50:33.658Z,100936.35
2019-02-19T05:51:09.895Z,100934.53
2019-02-19T05:51:46.198Z,100928.63
2019-02-19T05:52:22.864Z,100930.66
2019-02-19T05:52:59.120Z,100931.58
2019-02-19T05:53:35.196Z,100931.75
2019-02-19T05:54:11.313Z,100928.30
2019-02-19T05:54:47.672Z,100930.34
2019-02-19T05:55:23.890Z,100923.06
2019-02-19T05:55:59.927Z,100921.87
2019-02-19T05:56:36.150Z,100921.63
2019-02-19T05:57:12.468Z,100920.92
2019-02-19T05:57:48.780Z,100920.45
2019-02-19T05:58:24.844Z,100917.67
2019-02-19T05:59:04.032Z,100918.22
2019-02-19T05:59:40.323Z,100914.41
2019-02-19T06:00:16.557Z,100914.09
2019-02-19T06:00:52.740Z,100917.48
2019-02-19T06:01:28.861Z,100913.27
2019-02-19T06:02:05.147Z,100908.81
2019-02-19T06:02:41.375Z,100907.25
2019-02-19T06:03:17.531Z,100903.26
2019-02-19T06:03:53.676Z,100908.81
2019-02-19T06:04:29.926Z,100908.95
2019-02-19T06:05:06.407Z,100903.06
2019-02-19T06:05:42.651Z,100896.94
2019-02-19T06:06:18.900Z,100898.23
2019-02-19T06:06:55.011Z,100902.91
2019-02-19T06:07:31.188Z,100892.84
2019-02-19T06:08:07.449Z,100895.31
2019-02-19T06:08:43.711Z,100899.37
2019-02-19T06:09:19.805Z,100892.34
2019-02-19T06:09:55.849Z,100892.78
2019-02-19T06:10:31.952Z,100894.98
2019-02-19T06:11:08.058Z,100893.88
2019-02-19T06:11:44.049Z,100888.06
2019-02-19T06:12:20.161Z,100893.47
2019-02-19T06:12:56.350Z,100892.84
2019-02-19T06:13:32.483Z,100888.61
2019-02-19T06:14:08.751Z,100887.67
2019-02-19T06:14:44.798Z,100883.78
2019-02-19T06:15:20.888Z,100878.98
2019-02-19T06:15:56.901Z,100880.45
2019-02-19T06:16:32.906Z,100873.70
2019-02-19T06:17:09.023Z,100874.00
2019-02-19T06:17:45.074Z,100877.05
2019-02-19T06:18:21.311Z,100873.86
2019-02-19T06:18:57.424Z,100872.02
2019-02-19T06:19:33.580Z,100883.48
2019-02-19T06:20:10.018Z,100874.84
2019-02-19T06:20:46.144Z,100877.23
2019-02-19T06:21:22.333Z,100865.88
2019-02-19T06:21:58.496Z,100872.45
2019-02-19T06:22:34.745Z,100875.97
2019-02-19T06:23:10.761Z,100870.05
2019-02-19T06:23:46.942Z,100866.86
2019-02-19T06:24:23.206Z,100868.97
2019-02-19T06:24:59.546Z,100870.09
2019-02-19T06:25:35.651Z,100871.79
2019-02-19T06:26:11.752Z,100873.95
2019-02-19T06:26:47.920Z,100870.25
2019-02-19T06:27:24.003Z,100864.33
2019-02-19T06:28:00.213Z,100867.16
2019-02-19T06:28:36.397Z,100867.48
2019-02-19T06:29:12.484Z,100868.37
2019-02-19T06:29:48.422Z,100875.17
2019-02-19T06:30:24.481Z,100867.42
2019-02-19T06:31:00.549Z,100860.94
2019-02-19T06:31:36.813Z,100865.35
2019-02-19T06:32:12.992Z,100869.06
2019-02-19T06:32:58.283Z,100855.73
2019-02-19T06:33:34.582Z,100863.41
2019-02-19T06:34:11.292Z,100862.70
2019-02-19T06:34:47.779Z,100853.82
2019-02-19T06:35:24.261Z,100854.14
2019-02-19T06:36:00.668Z,100854.33
2019-02-19T06:36:36.888Z,100862.25
2019-02-19T06:37:13.168Z,100853.28
2019-02-19T06:37:49.369Z,100851.22
2019-02-19T06:38:25.517Z,100855.62
2019-02-19T06:39:01.760Z,100851.84
2019-02-19T06:39:37.809Z,100854.33
2019-02-19T06:40:27.770Z,100855.45
2019-02-19T06:41:03.839Z,100848.41
2019-02-19T06:41:39.935Z,100844.82
2019-02-19T06:42:15.923Z,100841.54
2019-02-19T06:42:52.049Z,100844.27
2019-02-19T06:43:28.227Z,100842.66
2019-02-19T06:44:04.522Z,100840.27
2019-02-19T06:44:40.862Z,100841.95
2019-02-19T06:45:16.825Z,100831.80
2019-02-19T06:45:53.014Z,100838.92
2019-02-19T06:46:29.208Z,100834.66
2019-02-19T06:47:07.074Z,100832.27
2019-02-19T06:47:43.149Z,100834.80
2019-02-19T06:48:19.410Z,100824.01
2019-02-19T06:48:55.373Z,100831.70
2019-02-19T06:49:31.352Z,100828.26
2019-02-19T06:50:07.920Z,100825.06
2019-02-19T06:50:44.052Z,100824.11
2019-02-19T06:51:20.321Z,100829.05
2019-02-19T06:51:56.348Z,100822.01
2019-02-19T06:52:32.408Z,100825.05
2019-02-19T06:53:08.639Z,100821.53
2019-02-19T06:53:44.681Z,100821.30